Time;durP1;ratioP1;P1;durP2;ratioP2;P2;SDS_P1;SDS_P2;PMS_P1;PMS_P2;Temp;Humidity;BMP_temperature;BMP_pressure;BME280_temperature;BME280_humidity;BME280_pressure;Samples;Min_cycle;Max_cycle;Signal;HPM_P1;HPM_P2
2023/03/22 00:00:38;;;;;;;43.03;31.35;;;9.30;80.90;;;;;;4970784;28;20053;-61
2023/03/22 00:03:05;;;;;;;41.35;30.55;;;9.30;80.90;;;;;;4972553;28;20482;-61
2023/03/22 00:05:31;;;;;;;42.10;30.52;;;9.30;80.80;;;;;;4973565;28;20035;-60
2023/03/22 00:07:57;;;;;;;44.45;30.63;;;9.30;80.70;;;;;;4968034;28;20117;-61
2023/03/22 00:10:30;;;;;;;42.90;30.95;;;9.40;80.70;;;;;;4972857;28;20169;-61
2023/03/22 00:12:55;;;;;;;43.42;30.50;;;9.40;80.70;;;;;;4975594;28;20120;-61
2023/03/22 00:15:21;;;;;;;42.38;29.73;;;9.40;80.70;;;;;;4972988;28;20062;-61
2023/03/22 00:17:49;;;;;;;44.40;29.52;;;9.40;80.70;;;;;;4970888;28;20089;-60
2023/03/22 00:20:16;;;;;;;41.03;28.85;;;9.40;80.70;;;;;;4971847;28;20026;-61
2023/03/22 00:22:42;;;;;;;43.78;29.88;;;9.40;80.70;;;;;;4964697;28;20031;-61
2023/03/22 00:25:08;;;;;;;43.60;31.67;;;9.40;80.70;;;;;;4969221;28;20055;-61
2023/03/22 00:27:34;;;;;;;45.88;32.28;;;9.40;80.80;;;;;;4964005;28;20073;-61
2023/03/22 00:29:59;;;;;;;40.47;31.05;;;9.40;80.90;;;;;;4966915;28;20027;-61
2023/03/22 00:32:25;;;;;;;41.83;31.48;;;9.50;80.90;;;;;;4969625;28;20113;-61
2023/03/22 00:34:51;;;;;;;44.40;31.92;;;9.50;80.80;;;;;;4967031;28;20031;-61
2023/03/22 00:37:20;;;;;;;40.30;30.40;;;9.50;80.90;;;;;;4971009;28;20097;-61
2023/03/22 00:39:46;;;;;;;43.33;31.38;;;9.50;80.70;;;;;;4972763;28;20038;-60
2023/03/22 00:42:12;;;;;;;41.03;30.33;;;9.50;80.70;;;;;;4972210;28;20031;-61
2023/03/22 00:44:37;;;;;;;44.15;30.70;;;9.50;80.60;;;;;;4970890;28;20439;-60
2023/03/22 00:47:03;;;;;;;39.97;29.92;;;9.50;80.70;;;;;;4975082;28;20489;-60
2023/03/22 00:49:30;;;;;;;44.80;30.35;;;9.50;80.70;;;;;;4969816;28;20397;-61
2023/03/22 00:51:55;;;;;;;39.45;28.67;;;9.50;80.90;;;;;;4970455;28;20027;-60
2023/03/22 00:54:21;;;;;;;34.58;25.45;;;9.50;81.00;;;;;;4972023;28;20045;-60
2023/03/22 00:56:48;;;;;;;37.50;27.48;;;9.50;81.00;;;;;;4968873;28;20085;-61
2023/03/22 00:59:15;;;;;;;34.58;26.10;;;9.50;81.10;;;;;;4972484;28;20645;-61
2023/03/22 01:01:41;;;;;;;34.97;26.10;;;9.50;81.10;;;;;;4972512;28;20031;-59
2023/03/22 01:04:06;;;;;;;36.13;27.65;;;9.50;81.00;;;;;;4970250;28;20080;-59
2023/03/22 01:06:33;;;;;;;38.65;27.15;;;9.50;81.10;;;;;;4968903;28;20042;-59
2023/03/22 01:08:59;;;;;;;36.28;25.98;;;9.50;81.10;;;;;;4971624;28;20041;-59
2023/03/22 01:11:24;;;;;;;34.05;24.52;;;9.60;81.30;;;;;;4972511;28;20027;-59
2023/03/22 01:13:50;;;;;;;36.42;26.13;;;9.60;81.00;;;;;;4970953;28;20093;-59
2023/03/22 01:16:16;;;;;;;35.88;26.77;;;9.60;80.90;;;;;;4972531;28;20041;-57
2023/03/22 01:18:42;;;;;;;35.97;26.58;;;9.60;81.00;;;;;;4972261;28;20031;-59
2023/03/22 01:21:07;;;;;;;36.75;27.00;;;9.60;80.80;;;;;;4965293;28;20039;-58
2023/03/22 01:23:33;;;;;;;37.83;26.52;;;9.60;80.90;;;;;;4970467;28;20109;-59
2023/03/22 01:26:00;;;;;;;36.63;26.52;;;9.60;80.90;;;;;;4971638;28;20083;-59
2023/03/22 01:28:26;;;;;;;33.00;25.42;;;9.60;80.90;;;;;;4971228;28;20027;-59
2023/03/22 01:30:52;;;;;;;37.08;26.08;;;9.60;80.90;;;;;;4969469;28;20458;-59
2023/03/22 01:33:17;;;;;;;36.13;26.52;;;9.60;81.10;;;;;;4975004;28;20034;-59
2023/03/22 01:35:43;;;;;;;37.72;26.60;;;9.60;81.00;;;;;;4975888;28;20066;-59
2023/03/22 01:38:09;;;;;;;35.90;26.40;;;9.60;81.00;;;;;;4973679;28;20045;-59
2023/03/22 01:40:35;;;;;;;36.25;27.77;;;9.60;81.10;;;;;;4975556;28;20023;-59
2023/03/22 01:43:00;;;;;;;36.55;27.60;;;9.70;81.20;;;;;;4971817;28;20071;-59
2023/03/22 01:45:38;;;;;;;37.53;28.30;;;9.80;81.30;;;;;;4962661;28;21200;-58
2023/03/22 01:48:29;;;;;;;35.30;26.73;;;9.80;81.00;;;;;;4983638;28;20034;-59
2023/03/22 01:51:21;;;;;;;36.67;27.30;;;9.90;81.00;;;;;;4972542;28;20141;-59
2023/03/22 01:53:54;;;;;;;36.13;25.73;;;9.90;80.80;;;;;;4974752;28;20062;-58
2023/03/22 01:56:23;;;;;;;34.33;25.77;;;10.00;80.60;;;;;;4979770;28;20524;-59
2023/03/22 01:58:49;;;;;;;32.38;25.67;;;10.00;80.50;;;;;;4974823;28;20034;-58
2023/03/22 02:01:16;;;;;;;34.55;26.10;;;10.10;80.40;;;;;;4974882;28;20389;-59
2023/03/22 02:04:06;;;;;;;36.38;25.08;;;10.10;80.30;;;;;;4969580;28;20027;-59
2023/03/22 02:06:37;;;;;;;31.97;23.00;;;10.10;80.10;;;;;;4974509;28;20029;-58
2023/03/22 02:09:05;;;;;;;32.72;24.60;;;10.10;80.00;;;;;;4974511;28;20039;-59
2023/03/22 02:11:34;;;;;;;34.75;25.20;;;10.10;79.90;;;;;;4976645;28;20035;-58
2023/03/22 02:14:30;;;;;;;32.50;24.33;;;10.10;79.90;;;;;;4974806;28;20027;-58
2023/03/22 02:17:13;;;;;;;36.38;26.17;;;10.10;79.90;;;;;;4974899;28;20113;-59
2023/03/22 02:19:54;;;;;;;33.25;26.23;;;10.10;79.90;;;;;;4975093;28;20043;-59
2023/03/22 02:22:43;;;;;;;39.08;27.90;;;10.10;80.00;;;;;;4972299;28;20125;-58
2023/03/22 02:25:27;;;;;;;36.00;27.20;;;10.10;80.00;;;;;;4974508;28;20478;-58
2023/03/22 02:28:07;;;;;;;36.53;26.67;;;10.20;79.90;;;;;;4971481;28;20473;-59
2023/03/22 02:30:50;;;;;;;34.55;25.25;;;10.20;79.60;;;;;;4974968;28;20031;-59
2023/03/22 02:33:37;;;;;;;30.30;23.40;;;10.30;79.50;;;;;;4971648;28;20089;-59
2023/03/22 02:36:03;;;;;;;34.80;24.17;;;10.40;79.30;;;;;;4973051;28;20081;-58
2023/03/22 02:39:03;;;;;;;34.10;24.67;;;10.40;79.20;;;;;;4974168;28;20035;-59
2023/03/22 02:41:48;;;;;;;32.38;23.95;;;10.40;79.00;;;;;;4973463;28;20023;-59
2023/03/22 02:44:25;;;;;;;30.05;21.75;;;10.40;79.00;;;;;;4969886;28;20030;-58
2023/03/22 02:47:03;;;;;;;29.00;22.45;;;10.40;79.00;;;;;;4983456;28;20386;-58
2023/03/22 02:49:35;;;;;;;30.45;21.80;;;10.30;79.10;;;;;;4984203;28;20039;-59
2023/03/22 02:52:16;;;;;;;30.45;21.92;;;10.30;79.30;;;;;;4967523;28;20046;-59
2023/03/22 02:55:03;;;;;;;28.17;21.15;;;10.30;79.30;;;;;;4971940;28;20023;-59
2023/03/22 02:57:57;;;;;;;29.88;22.60;;;10.20;79.50;;;;;;4968658;28;20030;-50
2023/03/22 03:00:24;;;;;;;26.35;20.13;;;10.20;79.30;;;;;;4970341;28;20054;-51
2023/03/22 03:02:55;;;;;;;25.35;20.35;;;10.20;79.60;;;;;;4962762;28;20031;-53
2023/03/22 03:05:22;;;;;;;27.42;20.83;;;10.20;79.70;;;;;;4973617;28;20027;-52
2023/03/22 03:07:55;;;;;;;27.48;20.48;;;10.20;79.70;;;;;;4973709;28;20429;-51
2023/03/22 03:10:21;;;;;;;24.33;20.08;;;10.20;79.80;;;;;;4973268;28;20045;-53
2023/03/22 03:12:47;;;;;;;28.08;21.55;;;10.20;79.80;;;;;;4968729;28;20038;-51
2023/03/22 03:15:18;;;;;;;25.95;19.58;;;10.20;80.50;;;;;;4973537;28;20031;-48
2023/03/22 03:17:50;;;;;;;28.70;20.20;;;10.30;79.90;;;;;;4973856;28;20081;-52
2023/03/22 03:20:29;;;;;;;25.67;20.50;;;10.20;80.00;;;;;;4973575;28;20398;-48
2023/03/22 03:23:24;;;;;;;28.77;22.27;;;10.20;80.00;;;;;;4967548;28;20062;-50
2023/03/22 03:26:10;;;;;;;25.95;20.23;;;10.20;79.90;;;;;;4973740;28;20109;-52
2023/03/22 03:29:04;;;;;;;29.80;20.90;;;10.20;79.90;;;;;;4964988;28;20030;-52
2023/03/22 03:31:41;;;;;;;26.20;20.60;;;10.20;79.90;;;;;;4973442;28;20035;-53
2023/03/22 03:34:16;;;;;;;26.23;20.58;;;10.20;79.90;;;;;;4967751;28;20049;-53
2023/03/22 03:36:49;;;;;;;26.98;21.92;;;10.20;80.00;;;;;;4960203;28;20026;-52
2023/03/22 03:39:17;;;;;;;27.42;20.77;;;10.20;80.00;;;;;;4972767;28;20039;-52
2023/03/22 03:41:47;;;;;;;29.15;21.63;;;10.20;80.00;;;;;;4973527;28;20027;-49
2023/03/22 03:44:14;;;;;;;27.83;21.20;;;10.20;80.10;;;;;;4963165;28;20026;-53
2023/03/22 03:46:40;;;;;;;29.27;21.60;;;10.20;80.20;;;;;;4973252;28;20062;-50
2023/03/22 03:49:08;;;;;;;29.20;22.20;;;10.20;80.10;;;;;;4972825;28;20039;-52
2023/03/22 03:51:51;;;;;;;27.63;21.42;;;10.20;80.10;;;;;;4972559;28;20090;-53
2023/03/22 03:54:18;;;;;;;28.00;21.95;;;10.30;80.00;;;;;;4971598;28;20054;-52
2023/03/22 03:56:46;;;;;;;28.25;21.55;;;10.30;80.10;;;;;;4974096;28;20035;-55
2023/03/22 03:59:14;;;;;;;27.20;22.00;;;10.30;80.00;;;;;;4970735;28;20027;-53
2023/03/22 04:01:40;;;;;;;26.08;20.63;;;10.30;80.00;;;;;;4966080;28;20045;-51
2023/03/22 04:04:06;;;;;;;28.23;21.40;;;10.40;80.00;;;;;;4971332;28;20141;-54
2023/03/22 04:06:33;;;;;;;25.55;20.25;;;10.40;79.80;;;;;;4971921;28;20114;-51
2023/03/22 04:09:00;;;;;;;28.65;21.45;;;10.40;79.80;;;;;;4971625;28;20558;-50
2023/03/22 04:11:26;;;;;;;26.73;20.83;;;10.40;79.80;;;;;;4973936;28;20134;-51
2023/03/22 04:13:52;;;;;;;26.88;21.75;;;10.40;79.80;;;;;;4973320;28;20117;-54
2023/03/22 04:16:17;;;;;;;26.23;21.52;;;10.40;79.50;;;;;;4970391;28;20550;-49
2023/03/22 04:18:43;;;;;;;26.70;21.55;;;10.40;79.40;;;;;;4971456;28;20062;-54
2023/03/22 04:21:10;;;;;;;27.88;21.05;;;10.40;79.40;;;;;;4968395;28;20030;-50
2023/03/22 04:23:36;;;;;;;24.75;21.27;;;10.30;79.50;;;;;;4971886;28;20117;-56
2023/03/22 04:26:02;;;;;;;28.73;21.20;;;10.30;79.60;;;;;;4972741;28;20105;-57
2023/03/22 04:28:28;;;;;;;27.92;20.30;;;10.30;79.60;;;;;;4968743;28;20054;-59
2023/03/22 04:30:56;;;;;;;25.70;20.40;;;10.30;79.70;;;;;;4972812;28;20037;-59
2023/03/22 04:33:21;;;;;;;27.25;21.02;;;10.30;79.90;;;;;;4970864;28;20034;-59
2023/03/22 04:35:47;;;;;;;26.70;20.90;;;10.20;79.90;;;;;;4967049;28;20370;-58
2023/03/22 04:38:13;;;;;;;30.02;22.63;;;10.20;80.00;;;;;;4971063;28;20035;-59
2023/03/22 04:40:45;;;;;;;27.17;21.35;;;10.20;80.10;;;;;;4971070;28;20023;-58
2023/03/22 04:43:10;;;;;;;;;;;10.30;80.30;;;;;;4971976;28;20681;-59
2023/03/22 04:45:36;;;;;;;25.33;19.05;;;10.30;80.30;;;;;;4968836;28;19914;-59
2023/03/22 04:48:02;;;;;;;29.25;20.25;;;10.40;80.40;;;;;;4968951;28;20037;-59
2023/03/22 04:50:27;;;;;;;26.65;20.52;;;10.40;80.10;;;;;;4972749;28;20063;-59
2023/03/22 04:52:53;;;;;;;26.40;20.80;;;10.60;80.00;;;;;;4964658;28;20031;-59
2023/03/22 04:55:19;;;;;;;23.85;19.80;;;10.60;79.70;;;;;;4978432;28;20130;-59
2023/03/22 04:57:44;;;;;;;26.90;20.27;;;10.70;79.60;;;;;;4966626;28;20026;-59
2023/03/22 05:00:11;;;;;;;23.77;19.58;;;10.70;80.30;;;;;;4965994;28;20031;-59
2023/03/22 05:02:39;;;;;;;24.98;18.77;;;10.80;79.50;;;;;;4972273;28;20070;-59
2023/03/22 05:05:06;;;;;;;28.45;20.38;;;10.80;79.60;;;;;;4968456;28;20058;-58
2023/03/22 05:07:31;;;;;;;26.00;20.60;;;10.80;79.90;;;;;;4976166;28;20452;-58
2023/03/22 05:09:57;;;;;;;25.88;19.90;;;10.80;80.10;;;;;;4975933;28;20118;-59
2023/03/22 05:12:23;;;;;;;25.30;19.95;;;10.90;80.30;;;;;;4969213;28;20121;-59
2023/03/22 05:14:48;;;;;;;24.15;19.92;;;11.00;80.50;;;;;;4978307;28;20067;-59
2023/03/22 05:17:14;;;;;;;25.45;19.58;;;11.10;80.70;;;;;;4966295;28;20034;-59
2023/03/22 05:19:39;;;;;;;28.05;20.80;;;11.30;80.80;;;;;;4977397;28;20053;-59
2023/03/22 05:22:05;;;;;;;26.38;20.27;;;11.40;80.70;;;;;;4969910;28;20047;-59
2023/03/22 05:24:31;;;;;;;24.20;19.77;;;11.60;80.50;;;;;;4975390;28;20030;-58
2023/03/22 05:26:59;;;;;;;24.95;19.77;;;11.70;80.20;;;;;;4977831;28;20442;-58
2023/03/22 05:29:26;;;;;;;22.10;18.27;;;11.80;79.70;;;;;;4972261;28;20463;-59
2023/03/22 05:31:52;;;;;;;26.13;20.35;;;11.90;79.30;;;;;;4975001;28;20475;-59
2023/03/22 05:34:19;;;;;;;22.65;19.40;;;12.00;78.70;;;;;;4973493;28;20031;-57
2023/03/22 05:36:45;;;;;;;26.23;20.20;;;12.00;78.40;;;;;;4969054;28;20434;-60
2023/03/22 05:39:11;;;;;;;23.83;19.65;;;12.00;78.20;;;;;;4969492;28;20065;-58
2023/03/22 05:41:36;;;;;;;23.83;19.85;;;12.00;77.90;;;;;;4967773;28;20038;-58
2023/03/22 05:44:03;;;;;;;25.90;19.60;;;12.00;77.80;;;;;;4975582;28;20489;-58
2023/03/22 05:46:29;;;;;;;25.67;19.98;;;11.90;77.80;;;;;;4976512;28;20033;-59
2023/03/22 05:48:54;;;;;;;23.80;19.20;;;11.90;77.70;;;;;;4971160;28;20030;-58
2023/03/22 05:51:20;;;;;;;24.98;19.88;;;11.90;77.80;;;;;;4966678;28;20043;-59
2023/03/22 05:53:47;;;;;;;26.58;20.38;;;11.80;77.80;;;;;;4973656;28;20106;-58
2023/03/22 05:56:13;;;;;;;28.48;20.52;;;11.80;77.90;;;;;;4976434;28;20058;-59
2023/03/22 05:58:40;;;;;;;26.20;20.70;;;11.70;77.90;;;;;;4988487;28;20037;-58
2023/03/22 06:01:11;;;;;;;23.75;18.98;;;11.80;78.10;;;;;;4966661;28;20042;-59
2023/03/22 06:03:37;;;;;;;25.92;20.35;;;11.90;78.00;;;;;;4971057;28;20043;-59
2023/03/22 06:06:05;;;;;;;24.25;18.67;;;12.00;77.90;;;;;;4975365;28;20047;-58
2023/03/22 06:08:32;;;;;;;25.05;20.23;;;12.20;77.90;;;;;;4971877;28;20355;-59
2023/03/22 06:10:59;;;;;;;25.85;19.08;;;12.40;77.70;;;;;;4967693;28;20482;-57
2023/03/22 06:13:24;;;;;;;22.50;18.42;;;12.60;77.40;;;;;;4973260;28;20034;-59
2023/03/22 06:15:50;;;;;;;22.75;18.35;;;12.90;76.90;;;;;;4974151;28;20030;-58
2023/03/22 06:18:16;;;;;;;24.17;18.45;;;13.20;76.10;;;;;;4971969;28;20050;-58
2023/03/22 06:20:42;;;;;;;23.60;18.58;;;13.40;75.00;;;;;;4974082;28;20036;-58
2023/03/22 06:23:08;;;;;;;23.10;18.10;;;13.70;74.00;;;;;;4966162;28;20117;-57
2023/03/22 06:25:34;;;;;;;22.17;17.02;;;13.70;73.30;;;;;;4966212;28;20356;-59
2023/03/22 06:27:59;;;;;;;22.23;17.60;;;13.60;73.10;;;;;;4965039;28;20078;-57
2023/03/22 06:30:25;;;;;;;23.65;18.13;;;13.50;73.20;;;;;;4969205;28;20034;-59
2023/03/22 06:32:51;;;;;;;22.73;17.42;;;13.40;73.50;;;;;;4964254;28;20387;-59
2023/03/22 06:35:17;;;;;;;23.83;18.80;;;13.30;73.70;;;;;;4964167;28;20027;-58
2023/03/22 06:37:43;;;;;;;23.15;18.33;;;13.10;74.50;;;;;;4966896;28;20082;-58
2023/03/22 06:40:09;;;;;;;21.90;17.95;;;13.00;74.20;;;;;;4969512;28;20406;-59
2023/03/22 06:42:35;;;;;;;20.42;17.30;;;12.90;74.40;;;;;;4962385;28;20023;-59
2023/03/22 06:45:01;;;;;;;22.35;17.38;;;12.80;74.60;;;;;;4959463;28;20153;-59
2023/03/22 06:47:27;;;;;;;23.25;18.35;;;12.70;74.80;;;;;;4966425;28;20481;-57
2023/03/22 06:49:53;;;;;;;22.70;18.02;;;12.70;75.50;;;;;;4963680;28;20125;-58
2023/03/22 06:52:19;;;;;;;23.08;17.60;;;12.70;75.00;;;;;;4965016;28;20205;-58
2023/03/22 06:54:44;;;;;;;22.63;18.02;;;12.60;75.10;;;;;;4958760;28;20401;-58
2023/03/22 06:57:10;;;;;;;23.27;19.50;;;12.50;75.10;;;;;;4965188;28;20034;-59
2023/03/22 06:59:36;;;;;;;23.83;18.95;;;12.50;75.20;;;;;;4971748;28;20039;-58
2023/03/22 07:02:02;;;;;;;23.27;17.95;;;12.40;75.30;;;;;;4966862;28;20457;-57
2023/03/22 07:04:27;;;;;;;22.52;18.45;;;12.40;75.30;;;;;;4974725;28;20030;-59
2023/03/22 07:06:53;;;;;;;22.27;18.15;;;12.30;75.50;;;;;;4968051;28;20023;-59
2023/03/22 07:09:19;;;;;;;21.77;18.20;;;12.30;75.60;;;;;;4958857;28;20042;-58
2023/03/22 07:11:45;;;;;;;22.73;17.58;;;12.30;75.50;;;;;;4963526;28;20050;-56
2023/03/22 07:14:10;;;;;;;23.13;18.38;;;12.30;75.60;;;;;;4967953;28;20039;-59
2023/03/22 07:16:36;;;;;;;23.70;18.63;;;12.30;75.80;;;;;;4960758;28;20026;-57
2023/03/22 07:19:02;;;;;;;24.00;17.65;;;12.30;75.80;;;;;;4962882;28;20026;-58
2023/03/22 07:21:28;;;;;;;24.15;17.77;;;12.20;75.80;;;;;;4993982;28;20034;-57
2023/03/22 07:23:54;;;;;;;21.65;17.65;;;12.20;75.90;;;;;;4967627;28;20034;-57
2023/03/22 07:26:19;;;;;;;21.70;17.77;;;12.20;75.90;;;;;;4965270;28;20047;-59
2023/03/22 07:28:45;;;;;;;21.25;17.75;;;12.20;76.00;;;;;;4965095;28;20041;-58
2023/03/22 07:31:12;;;;;;;21.50;18.23;;;12.20;76.10;;;;;;4968406;28;20450;-57
2023/03/22 07:33:38;;;;;;;23.42;17.85;;;12.20;76.00;;;;;;4963354;28;20110;-57
2023/03/22 07:36:06;;;;;;;20.95;17.48;;;12.20;76.10;;;;;;4964033;28;20073;-58
2023/03/22 07:38:31;;;;;;;22.30;17.60;;;12.20;76.00;;;;;;4971004;28;20042;-58
2023/03/22 07:40:57;;;;;;;22.60;18.10;;;12.30;76.10;;;;;;4952504;28;20027;-59
2023/03/22 07:43:23;;;;;;;22.38;18.15;;;12.30;76.20;;;;;;4952437;28;20482;-57
2023/03/22 07:45:49;;;;;;;22.10;17.00;;;12.30;76.10;;;;;;4968952;28;20427;-58
2023/03/22 07:48:16;;;;;;;22.77;18.20;;;12.40;76.00;;;;;;4968385;28;20038;-57
2023/03/22 07:50:41;;;;;;;21.17;16.80;;;12.40;75.80;;;;;;4968969;28;20038;-57
2023/03/22 07:53:08;;;;;;;23.15;18.23;;;12.40;75.80;;;;;;4956782;28;20171;-58
2023/03/22 07:55:34;;;;;;;22.15;17.45;;;12.50;75.80;;;;;;4964188;28;20058;-57
2023/03/22 07:58:00;;;;;;;21.17;17.08;;;12.60;75.70;;;;;;4967797;28;20469;-59
2023/03/22 08:00:26;;;;;;;24.02;17.52;;;12.70;75.70;;;;;;4971880;28;20037;-58
2023/03/22 08:02:52;;;;;;;22.63;17.55;;;12.70;75.60;;;;;;4965624;28;20108;-58
2023/03/22 08:05:18;;;;;;;21.58;17.40;;;12.80;75.50;;;;;;4958906;28;20122;-56
2023/03/22 08:07:44;;;;;;;21.98;16.55;;;12.80;75.40;;;;;;4965459;28;20030;-59
2023/03/22 08:10:10;;;;;;;18.52;15.38;;;12.90;75.20;;;;;;4963744;28;20043;-58
2023/03/22 08:12:36;;;;;;;17.73;14.80;;;13.00;75.20;;;;;;4962183;28;20052;-59
2023/03/22 08:15:02;;;;;;;20.60;16.50;;;13.10;75.00;;;;;;4949008;28;20172;-58
2023/03/22 08:17:29;;;;;;;21.35;16.83;;;13.10;75.00;;;;;;4956291;28;20027;-58
2023/03/22 08:19:55;;;;;;;19.25;16.60;;;13.20;74.60;;;;;;4949421;28;20090;-57
2023/03/22 08:22:24;;;;;;;18.27;15.60;;;13.30;74.60;;;;;;4948580;28;20045;-57
2023/03/22 08:24:53;;;;;;;22.75;18.42;;;13.40;74.40;;;;;;4956088;28;20055;-58
2023/03/22 08:27:19;;;;;;;19.40;16.35;;;13.50;74.20;;;;;;4952648;28;20086;-58
2023/03/22 08:29:47;;;;;;;20.55;16.30;;;13.60;74.10;;;;;;4945776;28;20842;-57
2023/03/22 08:32:13;;;;;;;19.92;15.63;;;13.70;73.80;;;;;;4976320;28;20035;-57
2023/03/22 08:34:40;;;;;;;18.23;15.52;;;13.70;73.60;;;;;;4947588;28;20521;-58
2023/03/22 08:37:07;;;;;;;21.15;16.20;;;13.80;73.50;;;;;;4944786;28;20707;-58
2023/03/22 08:39:33;;;;;;;19.38;16.55;;;13.90;73.30;;;;;;4954337;28;21262;-56
2023/03/22 08:41:59;;;;;;;19.38;15.52;;;13.90;73.20;;;;;;4953279;28;20030;-59
2023/03/22 08:44:25;;;;;;;18.92;16.13;;;13.90;73.00;;;;;;4957181;28;20156;-58
2023/03/22 08:46:51;;;;;;;20.52;16.17;;;14.00;72.90;;;;;;4946948;28;20042;-59
2023/03/22 08:49:17;;;;;;;20.35;16.40;;;14.00;72.90;;;;;;4960339;28;20395;-58
2023/03/22 08:51:43;;;;;;;20.85;15.50;;;14.00;72.70;;;;;;4960277;28;20081;-60
2023/03/22 08:54:09;;;;;;;20.48;15.60;;;14.10;72.50;;;;;;4945410;28;20118;-58
2023/03/22 08:56:37;;;;;;;21.08;16.08;;;14.10;72.40;;;;;;4955731;28;20046;-58
2023/03/22 08:59:07;;;;;;;18.95;15.75;;;14.20;72.30;;;;;;4957439;28;20093;-58
2023/03/22 09:01:34;;;;;;;22.33;17.48;;;14.20;72.20;;;;;;4952694;28;20038;-59
2023/03/22 09:04:00;;;;;;;19.80;16.65;;;14.20;72.00;;;;;;4953774;28;20039;-58
2023/03/22 09:06:26;;;;;;;19.38;16.45;;;14.30;72.10;;;;;;4963404;28;20113;-58
2023/03/22 09:08:52;;;;;;;21.10;16.77;;;14.30;71.80;;;;;;4945639;28;20413;-57
2023/03/22 09:11:18;;;;;;;18.52;14.88;;;14.40;71.60;;;;;;4950901;28;20031;-56
2023/03/22 09:13:44;;;;;;;19.60;16.48;;;14.40;71.40;;;;;;4954794;28;20031;-58
2023/03/22 09:16:10;;;;;;;21.23;16.55;;;14.40;71.20;;;;;;4960417;28;20039;-57
2023/03/22 09:18:37;;;;;;;20.73;16.25;;;14.50;71.20;;;;;;4959871;28;20065;-59
2023/03/22 09:21:04;;;;;;;20.70;16.65;;;14.40;71.20;;;;;;4959795;28;20039;-57
2023/03/22 09:23:31;;;;;;;21.10;16.48;;;14.50;71.00;;;;;;4958773;28;20038;-58
2023/03/22 09:26:00;;;;;;;19.10;15.57;;;14.50;71.00;;;;;;4951699;28;20072;-59
2023/03/22 09:28:27;;;;;;;20.20;15.60;;;14.50;70.90;;;;;;4951751;28;20230;-59
2023/03/22 09:30:53;;;;;;;18.92;15.23;;;14.50;71.00;;;;;;4967469;28;20058;-59
2023/03/22 09:33:18;;;;;;;21.13;16.02;;;14.50;70.80;;;;;;4954044;28;20031;-59
2023/03/22 09:35:44;;;;;;;20.25;16.42;;;14.50;70.80;;;;;;4953533;28;20034;-57
2023/03/22 09:38:11;;;;;;;19.52;15.70;;;14.50;70.70;;;;;;4957712;28;20097;-57
2023/03/22 09:40:45;;;;;;;22.48;17.27;;;14.40;70.70;;;;;;4953297;28;20055;-58
2023/03/22 09:43:12;;;;;;;20.42;16.13;;;14.40;70.70;;;;;;4958751;28;20449;-57
2023/03/22 09:45:45;;;;;;;17.95;14.90;;;14.40;70.80;;;;;;4956648;28;20081;-57
2023/03/22 09:48:49;;;;;;;20.80;15.95;;;14.40;70.80;;;;;;4954826;28;20035;-58
2023/03/22 09:51:35;;;;;;;18.65;15.43;;;14.40;70.50;;;;;;4905998;29;20123;-58
2023/03/22 09:54:01;;;;;;;20.30;16.27;;;14.40;70.80;;;;;;4906593;29;20036;-55
2023/03/22 09:56:30;;;;;;;19.38;15.80;;;14.40;71.00;;;;;;4933856;28;20047;-57
2023/03/22 09:59:28;;;;;;;21.85;16.70;;;14.40;71.00;;;;;;4952361;28;20038;-59
2023/03/22 10:02:03;;;;;;;18.73;15.45;;;14.40;70.80;;;;;;4924391;28;20137;-56
2023/03/22 10:04:37;;;;;;;19.58;15.05;;;14.40;71.10;;;;;;4950361;28;20043;-59
2023/03/22 10:07:33;;;;;;;19.35;14.95;;;14.40;70.80;;;;;;4952958;28;20031;-58
2023/03/22 10:10:07;;;;;;;19.00;15.57;;;14.40;70.70;;;;;;4954553;28;20050;-57
2023/03/22 10:12:44;;;;;;;18.27;15.82;;;14.40;70.70;;;;;;4970435;28;20133;-57
2023/03/22 10:15:22;;;;;;;19.00;16.55;;;14.40;70.70;;;;;;4948855;28;20034;-57
2023/03/22 10:17:53;;;;;;;20.63;15.85;;;14.40;70.90;;;;;;4937795;28;20045;-58
2023/03/22 10:20:41;;;;;;;20.52;16.23;;;14.40;71.00;;;;;;4948750;28;20190;-57
2023/03/22 10:23:13;;;;;;;21.70;15.05;;;14.40;70.80;;;;;;4945552;28;20031;-56
2023/03/22 10:25:41;;;;;;;17.75;14.77;;;14.30;70.80;;;;;;4953285;28;20050;-58
2023/03/22 10:28:19;;;;;;;17.67;14.90;;;14.30;70.90;;;;;;4949795;28;20500;-57
2023/03/22 10:30:52;;;;;;;19.17;15.60;;;14.30;70.80;;;;;;4949137;28;20562;-58
2023/03/22 10:33:37;;;;;;;20.52;14.90;;;14.30;70.80;;;;;;4958397;28;20039;-56
2023/03/22 10:36:04;;;;;;;19.73;15.60;;;14.30;70.80;;;;;;4953501;28;20019;-58
2023/03/22 10:38:33;;;;;;;19.38;15.27;;;14.30;70.80;;;;;;4954264;28;20041;-58
2023/03/22 10:41:00;;;;;;;18.27;14.75;;;14.30;70.80;;;;;;4951877;28;20124;-57
2023/03/22 10:43:36;;;;;;;18.35;15.30;;;14.30;70.80;;;;;;4945631;28;20784;-57
2023/03/22 10:46:09;;;;;;;19.63;16.13;;;14.30;70.70;;;;;;4945007;28;20031;-56
2023/03/22 10:48:42;;;;;;;21.98;17.25;;;14.30;70.40;;;;;;4948494;28;20043;-57
2023/03/22 10:51:15;;;;;;;18.52;15.43;;;14.40;70.40;;;;;;4959388;28;20149;-57
2023/03/22 10:53:46;;;;;;;19.00;15.68;;;14.40;70.30;;;;;;4949018;28;20034;-58
2023/03/22 10:56:15;;;;;;;19.52;16.42;;;14.40;70.20;;;;;;4949762;28;20123;-57
2023/03/22 10:58:40;;;;;;;18.83;15.40;;;14.50;70.20;;;;;;4945934;28;20050;-57
2023/03/22 11:01:15;;;;;;;20.33;16.52;;;14.50;70.20;;;;;;4942271;28;20035;-56
2023/03/22 11:03:43;;;;;;;18.35;15.43;;;14.60;70.10;;;;;;4949182;28;20031;-58
2023/03/22 11:06:14;;;;;;;20.45;16.02;;;14.60;69.90;;;;;;4944765;28;20039;-58
2023/03/22 11:08:47;;;;;;;19.08;15.73;;;14.70;69.80;;;;;;4954903;28;20121;-57
2023/03/22 11:11:22;;;;;;;20.17;15.73;;;14.70;69.60;;;;;;4955840;28;20121;-59
2023/03/22 11:14:15;;;;;;;20.77;15.73;;;14.70;69.60;;;;;;4951864;28;20038;-58
2023/03/22 11:16:53;;;;;;;19.33;15.75;;;14.80;69.50;;;;;;4961432;28;20046;-58
2023/03/22 11:19:25;;;;;;;17.30;15.43;;;14.80;69.30;;;;;;4955504;28;20123;-58
2023/03/22 11:21:53;;;;;;;20.83;16.98;;;14.90;69.20;;;;;;4955899;28;20028;-57
2023/03/22 11:24:30;;;;;;;19.48;16.40;;;14.90;69.00;;;;;;5073930;27;20501;-58
2023/03/22 11:27:17;;;;;;;19.73;16.70;;;15.00;69.00;;;;;;5087624;28;20032;-58
2023/03/22 11:29:46;;;;;;;21.10;16.85;;;15.00;69.00;;;;;;5069638;28;20244;-56
2023/03/22 11:32:37;;;;;;;21.70;17.73;;;15.00;68.80;;;;;;5057400;28;20406;-58
2023/03/22 11:35:26;;;;;;;22.02;17.38;;;15.00;68.60;;;;;;5063330;28;20029;-57
2023/03/22 11:37:54;;;;;;;22.60;18.48;;;15.00;68.50;;;;;;5069317;28;20353;-58
2023/03/22 11:40:29;;;;;;;24.40;18.83;;;15.10;68.40;;;;;;5054383;28;20056;-57
2023/03/22 11:43:01;;;;;;;22.85;17.48;;;15.10;68.50;;;;;;5067012;28;20040;-58
2023/03/22 11:45:34;;;;;;;21.80;17.23;;;15.10;68.20;;;;;;5067174;28;20468;-58
2023/03/22 11:48:06;;;;;;;21.88;18.02;;;15.10;68.10;;;;;;5070342;28;21212;-58
2023/03/22 11:50:35;;;;;;;21.15;17.38;;;15.10;68.10;;;;;;5063717;28;20102;-57
2023/03/22 11:53:03;;;;;;;19.73;17.30;;;15.10;67.90;;;;;;5063143;28;20037;-56
2023/03/22 11:55:33;;;;;;;20.27;17.23;;;15.10;68.00;;;;;;5071966;28;20028;-57
2023/03/22 11:58:00;;;;;;;20.60;17.25;;;15.10;67.90;;;;;;5067042;28;20475;-58
2023/03/22 12:00:30;;;;;;;20.60;16.83;;;15.10;67.90;;;;;;5062860;28;20741;-58
2023/03/22 12:03:05;;;;;;;20.65;16.20;;;15.10;67.80;;;;;;5069681;28;20027;-59
2023/03/22 12:05:33;;;;;;;21.55;17.25;;;15.10;67.90;;;;;;5069598;28;20041;-56
2023/03/22 12:08:20;;;;;;;23.10;18.55;;;15.00;67.90;;;;;;5070694;28;20059;-57
2023/03/22 12:10:54;;;;;;;23.80;18.65;;;15.00;67.90;;;;;;5066116;28;20039;-57
2023/03/22 12:13:22;;;;;;;22.73;18.25;;;15.00;68.10;;;;;;5070215;28;20125;-58
2023/03/22 12:15:56;;;;;;;20.98;17.27;;;15.00;68.00;;;;;;5071829;28;20036;-57
2023/03/22 12:18:30;;;;;;;21.52;17.95;;;15.00;68.10;;;;;;5067996;28;20178;-57
2023/03/22 12:20:57;;;;;;;22.08;19.05;;;15.00;68.10;;;;;;5064494;28;20093;-56
2023/03/22 12:23:27;;;;;;;23.23;18.65;;;15.00;68.20;;;;;;5067697;28;20078;-57
2023/03/22 12:26:13;;;;;;;24.73;20.52;;;15.00;68.20;;;;;;5070030;28;20334;-58
2023/03/22 12:28:40;;;;;;;28.50;21.25;;;15.00;68.10;;;;;;5066379;28;20043;-57
2023/03/22 12:31:14;;;;;;;30.02;21.98;;;15.00;68.30;;;;;;5064400;28;20090;-59
2023/03/22 12:33:46;;;;;;;29.90;23.25;;;15.00;68.20;;;;;;5070511;28;20044;-58
2023/03/22 12:36:18;;;;;;;30.58;22.75;;;15.00;68.20;;;;;;5062583;28;20025;-59
2023/03/22 12:38:51;;;;;;;28.90;22.08;;;15.00;68.10;;;;;;5053137;28;20513;-58
2023/03/22 12:41:30;;;;;;;26.63;19.90;;;15.00;68.00;;;;;;5055056;28;20160;-58